Rodney, Canada
Current Conditions -  °F | °C
As of 1:26 PM on Thursday 29 Jan 2015 (Local Time) from CYCK Reporting Station
Light Rain Light Rain  
Wind Chill: 25°   Ceiling: 3400
Heat Index: 34°   Visibility: 9mi
Dew Point: 30°   Wind: 13mph
Humidity: 87%   Direction: 220°SW
Pressure: 29.7"   Gusts: NA
Location:  42.57°N, 81.68°W
Report Text: CYCK 291826Z AUTO 22011KT 9SM -RA OVC034 01/M01 A2970 RMK SLP066
Loading
Personal Weather Stations






























Interactive Weather Map New forecast layout! Learn more

10-Day Weather Forecast

Advertisements
Track Severe Weather on mobile